createdAt,value
2023-02-14T00:01:51.812Z,103289.91
2023-02-14T00:04:38.564Z,103281.34
2023-02-14T00:07:25.104Z,103280.63
2023-02-14T00:10:12.422Z,103284.25
2023-02-14T00:12:58.706Z,103280.50
2023-02-14T00:15:46.524Z,103284.94
2023-02-14T00:18:50.395Z,103289.13
2023-02-14T00:21:38.719Z,103293.63
2023-02-14T00:24:27.111Z,103272.00
2023-02-14T00:27:13.691Z,103285.47
2023-02-14T00:30:02.708Z,103287.31
2023-02-14T00:32:50.615Z,103288.28
2023-02-14T00:35:38.847Z,103280.50
2023-02-14T00:38:25.627Z,103284.72
2023-02-14T00:41:19.292Z,103284.81
2023-02-14T00:44:06.794Z,103279.56
2023-02-14T00:46:53.508Z,103281.19
2023-02-14T00:49:44.574Z,103284.56
2023-02-14T00:52:31.812Z,103287.72
2023-02-14T00:55:18.704Z,103279.72
2023-02-14T00:58:06.744Z,103283.63
2023-02-14T01:00:53.777Z,103270.31
2023-02-14T01:03:40.834Z,103280.75
2023-02-14T01:06:28.875Z,103279.91
2023-02-14T01:09:16.342Z,103275.47
2023-02-14T01:12:03.187Z,103270.28
2023-02-14T01:14:49.959Z,103266.78
2023-02-14T01:17:39.233Z,103272.13
2023-02-14T01:20:26.158Z,103262.25
2023-02-14T01:23:14.272Z,103264.94
2023-02-14T01:26:06.024Z,103216.97
2023-02-14T01:28:53.565Z,103260.53
2023-02-14T01:31:40.219Z,103268.38
2023-02-14T01:34:26.854Z,103254.25
2023-02-14T01:37:13.727Z,103256.06
2023-02-14T01:40:03.009Z,103252.72
2023-02-14T01:42:49.789Z,103255.47
2023-02-14T01:45:36.627Z,103254.44
2023-02-14T01:48:24.926Z,103247.38
2023-02-14T01:51:11.791Z,103243.75
2023-02-14T01:54:00.217Z,103244.72
2023-02-14T01:56:52.740Z,103247.22
2023-02-14T01:59:47.496Z,103250.75
2023-02-14T02:02:34.363Z,103248.03
2023-02-14T02:05:23.936Z,103245.97
2023-02-14T02:08:10.669Z,103242.06
2023-02-14T02:10:57.290Z,103235.00
2023-02-14T02:13:45.312Z,103165.44
2023-02-14T02:16:49.221Z,103243.69
2023-02-14T02:20:15.359Z,103237.72
2023-02-14T02:23:51.319Z,103239.47
2023-02-14T02:27:08.384Z,103242.69
2023-02-14T02:30:37.827Z,103240.72
2023-02-14T02:34:01.961Z,103251.09
2023-02-14T02:37:17.449Z,103241.94
2023-02-14T02:40:23.476Z,103244.50
2023-02-14T02:43:22.016Z,103246.84
2023-02-14T02:46:34.483Z,103252.97
2023-02-14T02:50:10.179Z,103252.06
2023-02-14T02:53:07.027Z,103244.97
2023-02-14T02:56:18.420Z,103253.84
2023-02-14T02:59:18.494Z,103244.13
2023-02-14T03:02:14.877Z,103251.09
2023-02-14T03:05:05.659Z,103258.19
2023-02-14T03:07:52.256Z,103259.47
2023-02-14T03:10:40.752Z,103256.66
2023-02-14T03:13:54.349Z,103259.09
2023-02-14T03:16:54.849Z,103253.66
2023-02-14T03:20:11.855Z,103250.09
2023-02-14T03:23:05.671Z,103247.66
2023-02-14T03:26:08.067Z,103242.16
2023-02-14T03:29:03.930Z,103248.19
2023-02-14T03:31:59.542Z,103245.50
2023-02-14T03:34:55.280Z,103223.56
2023-02-14T03:37:49.011Z,103249.94
2023-02-14T03:40:40.236Z,103249.91
2023-02-14T03:43:32.869Z,103255.44
2023-02-14T03:46:25.585Z,103251.69
2023-02-14T03:49:18.752Z,103204.59
2023-02-14T03:52:08.529Z,103221.50
2023-02-14T03:54:59.258Z,103247.25
2023-02-14T03:57:54.145Z,103244.69
2023-02-14T04:00:43.731Z,103244.81
2023-02-14T04:03:33.426Z,103249.38
2023-02-14T04:06:21.087Z,103248.38
2023-02-14T04:09:07.738Z,103245.81
2023-02-14T04:11:54.593Z,103244.97
2023-02-14T04:14:41.473Z,103235.59
2023-02-14T04:17:46.660Z,103246.59
2023-02-14T04:20:34.261Z,103247.34
2023-02-14T04:23:20.930Z,103245.69
2023-02-14T04:26:08.104Z,103240.53
2023-02-14T04:28:54.758Z,103234.75
2023-02-14T04:31:42.237Z,103236.75
2023-02-14T04:34:30.046Z,103238.38
2023-02-14T04:37:19.640Z,103233.03
2023-02-14T04:40:07.355Z,103233.09
2023-02-14T04:42:54.260Z,103231.44
2023-02-14T04:45:40.831Z,103233.97
2023-02-14T04:48:27.618Z,103232.25
2023-02-14T04:51:15.873Z,103231.00
2023-02-14T04:54:02.740Z,103230.06
2023-02-14T04:56:49.657Z,103215.97
2023-02-14T04:59:36.408Z,103219.34
2023-02-14T05:02:23.273Z,103225.44
2023-02-14T05:05:09.974Z,103223.63
2023-02-14T05:07:58.140Z,103224.75
2023-02-14T05:10:45.252Z,103158.09
2023-02-14T05:13:32.166Z,103221.91
2023-02-14T05:16:19.115Z,103225.28
2023-02-14T05:19:05.838Z,103219.88
2023-02-14T05:21:52.725Z,103225.19
2023-02-14T05:24:40.790Z,103223.75
2023-02-14T05:27:27.467Z,103224.50
2023-02-14T05:30:15.329Z,103224.50
2023-02-14T05:33:02.555Z,103225.38
2023-02-14T05:35:49.705Z,103222.09
2023-02-14T05:38:36.738Z,103215.34
2023-02-14T05:41:24.799Z,103215.88
2023-02-14T05:44:11.546Z,103221.00
2023-02-14T05:46:58.282Z,103213.13
2023-02-14T05:49:44.971Z,103223.63
2023-02-14T05:52:31.706Z,103219.72
2023-02-14T05:55:18.622Z,103218.75
2023-02-14T05:58:07.581Z,103218.75
2023-02-14T06:00:54.008Z,103210.19
2023-02-14T06:03:40.826Z,103205.50
2023-02-14T06:06:27.850Z,103211.84
2023-02-14T06:09:15.003Z,103206.31
2023-02-14T06:12:01.855Z,103213.88
2023-02-14T06:14:50.040Z,103211.41
2023-02-14T06:17:36.908Z,103214.69
2023-02-14T06:20:25.292Z,103211.34
2023-02-14T06:23:11.787Z,103214.59
2023-02-14T06:25:58.862Z,103212.69
2023-02-14T06:28:45.352Z,103215.38
2023-02-14T06:31:33.738Z,103222.72
2023-02-14T06:34:20.647Z,103218.91
2023-02-14T06:37:07.447Z,103213.75
2023-02-14T06:39:54.172Z,103214.59
2023-02-14T06:42:41.119Z,103221.78
2023-02-14T06:45:27.825Z,103225.50
2023-02-14T06:48:15.974Z,103216.88
2023-02-14T06:51:03.196Z,103210.56
2023-02-14T06:53:49.784Z,103218.53
2023-02-14T06:56:36.552Z,103217.59
2023-02-14T06:59:23.325Z,103217.66
2023-02-14T07:02:15.358Z,103212.47
2023-02-14T07:05:03.838Z,103215.19
2023-02-14T07:07:50.846Z,103210.66
2023-02-14T07:10:37.264Z,103209.06
2023-02-14T07:13:24.428Z,103215.22
2023-02-14T07:16:10.963Z,103210.78
2023-02-14T07:18:57.686Z,103206.53
2023-02-14T07:21:45.830Z,103215.34
2023-02-14T07:24:32.625Z,103213.63
2023-02-14T07:27:19.374Z,103217.25
2023-02-14T07:30:07.559Z,103214.00
2023-02-14T07:32:54.040Z,103207.91
2023-02-14T07:35:40.910Z,103207.44
2023-02-14T07:38:30.625Z,103215.94
2023-02-14T07:41:17.499Z,103219.44
2023-02-14T07:44:04.192Z,103216.16
2023-02-14T07:46:51.070Z,103180.03
2023-02-14T07:49:38.228Z,103219.97
2023-02-14T07:52:25.199Z,103209.25
2023-02-14T07:55:13.396Z,103209.25
2023-02-14T07:58:00.150Z,103219.88
2023-02-14T08:00:47.626Z,103204.03
2023-02-14T08:03:34.465Z,103217.41
2023-02-14T08:06:21.692Z,103223.50
2023-02-14T08:09:12.177Z,103218.13
2023-02-14T08:12:17.809Z,103226.97
2023-02-14T08:15:24.237Z,103222.63
2023-02-14T08:18:13.562Z,103235.13
2023-02-14T08:21:00.989Z,103235.16
2023-02-14T08:23:47.746Z,103237.34
2023-02-14T08:26:34.458Z,103242.06
2023-02-14T08:29:22.678Z,103240.47
2023-02-14T08:32:09.387Z,103250.34
2023-02-14T08:34:56.076Z,103239.97
2023-02-14T08:37:42.978Z,103244.34
2023-02-14T08:40:29.843Z,103250.59
2023-02-14T08:43:16.787Z,103254.53
2023-02-14T08:46:05.065Z,103244.75
2023-02-14T08:48:53.508Z,103251.91
2023-02-14T08:51:39.870Z,103254.41
2023-02-14T08:54:26.650Z,103253.53
2023-02-14T08:57:15.597Z,103251.19
2023-02-14T09:00:02.120Z,103251.88
2023-02-14T09:02:53.049Z,103256.28
2023-02-14T09:05:39.820Z,103255.38
2023-02-14T09:08:26.717Z,103261.53
2023-02-14T09:11:15.231Z,103254.53
2023-02-14T09:14:01.910Z,103259.03
2023-02-14T09:16:48.707Z,103268.69
2023-02-14T09:19:38.849Z,103262.72
2023-02-14T09:22:25.441Z,103272.59
2023-02-14T09:25:12.771Z,103274.31
2023-02-14T09:27:59.693Z,103275.81
2023-02-14T09:30:46.384Z,103269.75
2023-02-14T09:33:33.233Z,103265.56
2023-02-14T09:36:21.467Z,103265.59
2023-02-14T09:39:07.992Z,103269.78
2023-02-14T09:42:16.488Z,103266.31
2023-02-14T09:45:08.176Z,103265.28
2023-02-14T09:47:58.998Z,103261.03
2023-02-14T09:50:50.895Z,103256.78
2023-02-14T09:53:45.071Z,103260.63
2023-02-14T09:56:51.690Z,103255.19
2023-02-14T09:59:50.366Z,103265.56
2023-02-14T10:02:43.695Z,103262.06
2023-02-14T10:05:33.520Z,103270.00
2023-02-14T10:08:39.485Z,103269.34
2023-02-14T10:11:29.676Z,103270.94
2023-02-14T10:14:21.162Z,103268.31
2023-02-14T10:17:11.057Z,103215.38
2023-02-14T10:20:02.839Z,103269.56
2023-02-14T10:22:56.428Z,103263.97
2023-02-14T10:25:48.062Z,103260.47
2023-02-14T10:28:41.033Z,103270.34
2023-02-14T10:31:31.205Z,103258.03
2023-02-14T10:34:23.564Z,103252.69
2023-02-14T10:37:25.148Z,103260.03
2023-02-14T10:40:36.162Z,103250.50
2023-02-14T10:43:35.234Z,103248.53
2023-02-14T10:46:34.317Z,103242.94
2023-02-14T10:49:34.551Z,103236.63
2023-02-14T10:52:26.711Z,103242.13
2023-02-14T10:55:31.372Z,103240.91
2023-02-14T10:58:21.516Z,103237.59
2023-02-14T11:01:12.075Z,103238.78
2023-02-14T11:04:04.283Z,103242.44
2023-02-14T11:06:51.631Z,103237.72
2023-02-14T11:09:38.098Z,103249.38
2023-02-14T11:12:37.595Z,103239.03
2023-02-14T11:15:28.491Z,103238.44
2023-02-14T11:18:23.672Z,103236.56
2023-02-14T11:21:14.667Z,103243.72
2023-02-14T11:24:01.506Z,103231.97
2023-02-14T11:26:50.197Z,103225.09
2023-02-14T11:29:45.666Z,103227.66
2023-02-14T11:32:37.639Z,103230.66
2023-02-14T11:35:30.273Z,103234.44
2023-02-14T11:38:30.655Z,103226.94
2023-02-14T11:41:18.215Z,103224.50
2023-02-14T11:44:22.292Z,103216.22
2023-02-14T11:47:27.871Z,103214.50
2023-02-14T11:50:23.393Z,103204.97
2023-02-14T11:53:13.129Z,103206.78
2023-02-14T11:56:01.542Z,103206.47
2023-02-14T11:58:54.405Z,103206.47
2023-02-14T12:01:41.450Z,103205.41
2023-02-14T12:04:38.118Z,103179.03
2023-02-14T12:07:32.130Z,103196.13
2023-02-14T12:10:22.601Z,103198.56
2023-02-14T12:13:26.753Z,103195.00
2023-02-14T12:16:22.639Z,103187.38
2023-02-14T12:19:18.530Z,103177.84
2023-02-14T12:22:07.650Z,103177.94
2023-02-14T12:25:03.809Z,103177.09
2023-02-14T12:27:54.991Z,103167.50
2023-02-14T12:30:42.935Z,103172.66
2023-02-14T12:33:29.436Z,103161.09
2023-02-14T12:36:29.522Z,103154.09
2023-02-14T12:39:27.276Z,103146.13
2023-02-14T12:42:26.955Z,103151.25
2023-02-14T12:45:20.191Z,103140.53
2023-02-14T12:48:22.971Z,103130.63
2023-02-14T12:51:15.193Z,103113.81
2023-02-14T12:54:18.490Z,103128.22
2023-02-14T12:57:14.222Z,103124.78
2023-02-14T13:00:15.044Z,103122.34
2023-02-14T13:03:32.431Z,103119.75
2023-02-14T13:06:27.484Z,103125.91
2023-02-14T13:09:34.994Z,103118.88
2023-02-14T13:12:35.141Z,103112.63
2023-02-14T13:15:30.121Z,103119.84
2023-02-14T13:18:27.703Z,103114.47
2023-02-14T13:21:19.933Z,103103.75
2023-02-14T13:24:18.420Z,103106.44
2023-02-14T13:27:08.261Z,103087.00
2023-02-14T13:30:01.612Z,103088.66
2023-02-14T13:32:56.066Z,103100.03
2023-02-14T13:35:43.377Z,103099.19
2023-02-14T13:38:33.006Z,103098.31
2023-02-14T13:41:22.226Z,103096.53
2023-02-14T13:44:13.143Z,103093.84
2023-02-14T13:47:00.381Z,103095.50
2023-02-14T13:49:54.258Z,103093.78
2023-02-14T13:52:47.016Z,103093.88
2023-02-14T13:55:37.703Z,103099.13
2023-02-14T13:58:25.867Z,103094.81
2023-02-14T14:01:31.550Z,103086.75
2023-02-14T14:04:38.528Z,103093.88
2023-02-14T14:07:30.151Z,103091.97
2023-02-14T14:10:46.078Z,103087.72
2023-02-14T14:14:02.684Z,103091.13
2023-02-14T14:16:59.360Z,103072.53
2023-02-14T14:19:47.472Z,103092.00
2023-02-14T14:22:47.913Z,103089.25
2023-02-14T14:25:37.594Z,103093.75
2023-02-14T14:28:27.996Z,103084.03
2023-02-14T14:31:15.066Z,103088.31
2023-02-14T14:34:02.769Z,103078.53
2023-02-14T14:36:49.799Z,103087.44
2023-02-14T14:39:39.966Z,103080.47
2023-02-14T14:42:30.612Z,103077.72
2023-02-14T14:45:24.925Z,103076.63
2023-02-14T14:48:14.451Z,103072.25
2023-02-14T14:51:01.572Z,103066.94
2023-02-14T14:53:51.955Z,103065.84
2023-02-14T14:56:47.039Z,103067.44
2023-02-14T14:59:35.842Z,103068.09
2023-02-14T15:02:26.422Z,103059.22
2023-02-14T15:05:26.064Z,103057.16
2023-02-14T15:08:17.863Z,103057.06
2023-02-14T15:11:13.117Z,103054.19
2023-02-14T15:13:59.875Z,103047.94
2023-02-14T15:16:49.753Z,103037.13
2023-02-14T15:19:41.835Z,103029.88
2023-02-14T15:22:31.330Z,103044.03
2023-02-14T15:25:21.204Z,103035.03
2023-02-14T15:28:07.816Z,103029.50
2023-02-14T15:30:59.231Z,102992.28
2023-02-14T15:33:46.050Z,103018.81
2023-02-14T15:36:36.086Z,103022.13
2023-02-14T15:39:28.487Z,103017.63
2023-02-14T15:42:25.838Z,103018.25
2023-02-14T15:45:17.057Z,103016.41
2023-02-14T15:48:09.274Z,103011.88
2023-02-14T15:50:59.176Z,103009.13
2023-02-14T15:53:52.741Z,103002.59
2023-02-14T15:56:45.720Z,102999.81
2023-02-14T15:59:34.973Z,102988.13
2023-02-14T16:02:31.248Z,102953.97
2023-02-14T16:05:20.395Z,102996.81
2023-02-14T16:08:24.132Z,102996.56
2023-02-14T16:11:16.957Z,102992.19
2023-02-14T16:14:21.777Z,102998.94
2023-02-14T16:17:13.003Z,102994.44
2023-02-14T16:19:59.782Z,102999.41
2023-02-14T16:22:46.817Z,102998.34
2023-02-14T16:25:33.672Z,103009.44
2023-02-14T16:28:22.028Z,103008.47
2023-02-14T16:31:12.541Z,103006.34
2023-02-14T16:33:59.630Z,102998.03
2023-02-14T16:36:46.491Z,102991.69
2023-02-14T16:39:33.363Z,102995.09
2023-02-14T16:42:20.339Z,103003.63
2023-02-14T16:45:15.214Z,102995.53
2023-02-14T16:48:01.651Z,103000.16
2023-02-14T16:50:48.692Z,103006.66
2023-02-14T16:53:36.236Z,103004.09
2023-02-14T16:56:27.390Z,102999.56
2023-02-14T16:59:14.039Z,103004.09
2023-02-14T17:02:02.360Z,103003.78
2023-02-14T17:04:48.786Z,103005.97
2023-02-14T17:07:35.814Z,103007.38
2023-02-14T17:10:22.499Z,102999.72
2023-02-14T17:13:10.775Z,103001.28
2023-02-14T17:15:58.315Z,103000.00
2023-02-14T17:18:49.557Z,102991.16
2023-02-14T17:21:36.268Z,102992.72
2023-02-14T17:24:22.740Z,103003.72
2023-02-14T17:27:09.946Z,102997.94
2023-02-14T17:29:56.454Z,103002.16
2023-02-14T17:32:43.199Z,103003.13
2023-02-14T17:35:31.533Z,102994.41
2023-02-14T17:38:20.248Z,102988.75
2023-02-14T17:41:14.936Z,102993.53
2023-02-14T17:44:02.066Z,102990.41
2023-02-14T17:46:48.651Z,102994.00
2023-02-14T17:49:35.592Z,102987.09
2023-02-14T17:52:24.309Z,102986.25
2023-02-14T17:55:11.225Z,102985.53
2023-02-14T17:57:58.749Z,102977.59
2023-02-14T18:00:45.752Z,102984.06
2023-02-14T18:03:32.863Z,102978.00
2023-02-14T18:06:19.925Z,102971.03
2023-02-14T18:09:08.190Z,102960.97
2023-02-14T18:11:55.648Z,102959.72
2023-02-14T18:14:42.372Z,102959.56
2023-02-14T18:17:29.344Z,102951.88
2023-02-14T18:20:16.125Z,102954.81
2023-02-14T18:23:07.146Z,102950.97
2023-02-14T18:25:57.707Z,102952.59
2023-02-14T18:28:44.550Z,102956.66
2023-02-14T18:31:31.671Z,102952.88
2023-02-14T18:34:18.558Z,102953.81
2023-02-14T18:37:06.149Z,102948.06
2023-02-14T18:39:52.677Z,102944.41
2023-02-14T18:42:40.794Z,102940.13
2023-02-14T18:45:27.668Z,102947.25
2023-02-14T18:48:14.372Z,102953.38
2023-02-14T18:51:06.583Z,102936.44
2023-02-14T18:53:54.581Z,102846.78
2023-02-14T18:56:41.768Z,102932.16
2023-02-14T18:59:29.585Z,102940.13
2023-02-14T19:02:16.783Z,102931.19
2023-02-14T19:05:04.376Z,102932.13
2023-02-14T19:07:55.191Z,102928.34
2023-02-14T19:10:41.857Z,102927.59
2023-02-14T19:13:29.498Z,102920.75
2023-02-14T19:16:20.128Z,102912.25
2023-02-14T19:19:06.578Z,102920.88
2023-02-14T19:21:53.573Z,102920.03
2023-02-14T19:24:40.174Z,102913.84
2023-02-14T19:27:26.917Z,102915.44
2023-02-14T19:30:14.193Z,102910.66
2023-02-14T19:33:02.176Z,102921.81
2023-02-14T19:35:50.280Z,102921.09
2023-02-14T19:38:36.900Z,102917.59
2023-02-14T19:41:26.009Z,102897.97
2023-02-14T19:44:14.795Z,102921.28
2023-02-14T19:47:05.892Z,102916.91
2023-02-14T19:50:00.579Z,102912.56
2023-02-14T19:52:47.317Z,102912.47
2023-02-14T19:55:34.946Z,102917.81
2023-02-14T19:58:21.616Z,102914.13
2023-02-14T20:01:08.273Z,102914.25
2023-02-14T20:03:55.243Z,102907.53
2023-02-14T20:06:43.944Z,102910.28
2023-02-14T20:09:30.385Z,102911.03
2023-02-14T20:12:17.349Z,102900.91
2023-02-14T20:15:05.843Z,102906.44
2023-02-14T20:17:53.380Z,102898.56
2023-02-14T20:21:05.957Z,102893.28
2023-02-14T20:23:54.545Z,102887.09
2023-02-14T20:26:42.639Z,102889.97
2023-02-14T20:29:29.942Z,102890.00
2023-02-14T20:32:17.490Z,102874.34
2023-02-14T20:35:04.262Z,102873.84
2023-02-14T20:37:52.521Z,102877.28
2023-02-14T20:40:42.758Z,102873.78
2023-02-14T20:43:29.334Z,102871.38
2023-02-14T20:46:16.075Z,102861.56
2023-02-14T20:49:03.341Z,102866.81
2023-02-14T20:51:51.571Z,102865.91
2023-02-14T20:54:39.428Z,102857.13
2023-02-14T20:57:27.210Z,102862.53
2023-02-14T21:00:15.180Z,102856.50
2023-02-14T21:03:01.810Z,102853.78
2023-02-14T21:05:49.084Z,102861.53
2023-02-14T21:08:36.818Z,102862.31
2023-02-14T21:11:25.172Z,102863.59
2023-02-14T21:14:13.232Z,102862.19
2023-02-14T21:17:00.025Z,102855.34
2023-02-14T21:19:46.778Z,102858.97
2023-02-14T21:22:33.837Z,102851.09
2023-02-14T21:25:23.387Z,102843.09
2023-02-14T21:28:10.814Z,102848.56
2023-02-14T21:31:05.383Z,102835.56
2023-02-14T21:33:53.458Z,102838.28
2023-02-14T21:36:40.285Z,102841.00
2023-02-14T21:39:27.938Z,102840.09
2023-02-14T21:42:17.214Z,102839.06
2023-02-14T21:45:22.873Z,102834.13
2023-02-14T21:48:33.615Z,102831.78
2023-02-14T21:51:20.802Z,102821.25
2023-02-14T21:54:07.815Z,102821.75
2023-02-14T21:56:54.707Z,102818.38
2023-02-14T21:59:41.851Z,102817.47
2023-02-14T22:02:28.364Z,102809.72
2023-02-14T22:05:16.714Z,102817.31
2023-02-14T22:08:03.610Z,102815.88
2023-02-14T22:10:50.265Z,102820.47
2023-02-14T22:13:37.443Z,102819.75
2023-02-14T22:16:27.219Z,102821.47
2023-02-14T22:19:16.104Z,102807.69
2023-02-14T22:22:04.054Z,102807.72
2023-02-14T22:24:50.767Z,102807.13
2023-02-14T22:27:40.023Z,102804.25
2023-02-14T22:30:26.577Z,102808.94
2023-02-14T22:33:13.305Z,102803.84
2023-02-14T22:36:01.059Z,102800.50
2023-02-14T22:38:49.526Z,102796.69
2023-02-14T22:41:38.033Z,102791.25
2023-02-14T22:44:25.087Z,102751.41
2023-02-14T22:47:12.734Z,102790.41
2023-02-14T22:50:01.420Z,102792.03
2023-02-14T22:52:49.065Z,102785.06
2023-02-14T22:55:38.039Z,102789.91
2023-02-14T22:58:26.732Z,102779.16
2023-02-14T23:01:18.819Z,102778.53
2023-02-14T23:04:07.425Z,102777.47
2023-02-14T23:06:56.297Z,102774.19
2023-02-14T23:09:43.448Z,102770.56
2023-02-14T23:12:49.569Z,102769.03
2023-02-14T23:15:54.449Z,102772.59
2023-02-14T23:18:59.446Z,102776.16
2023-02-14T23:21:58.381Z,102768.16
2023-02-14T23:24:46.837Z,102769.00
2023-02-14T23:27:37.725Z,102766.47
2023-02-14T23:30:24.878Z,102768.16
2023-02-14T23:33:11.565Z,102760.31
2023-02-14T23:35:58.320Z,102764.63
2023-02-14T23:38:45.081Z,102766.38
2023-02-14T23:41:49.980Z,102758.53
2023-02-14T23:44:38.223Z,102764.06
2023-02-14T23:47:24.746Z,102764.66
2023-02-14T23:50:16.565Z,102768.16
2023-02-14T23:53:05.797Z,102765.38
2023-02-14T23:55:53.140Z,102762.72
2023-02-14T23:58:40.589Z,102752.28
